TimeWST,TemperatureF,Dew PointF,Humidity,Sea Level PressureIn,VisibilityMPH,Wind Direction,Wind SpeedMPH,Gust SpeedMPH,PrecipitationIn,Events,Conditions,WindDirDegrees,DateUTC
12:00 AM,74,63,61,29.93,,SW,4.6,,,,,230,2012-10-14 16:00:00
12:00 AM,75.2,62.6,65,29.92,-9999.0,SW,4.6,-,N/A,,Unknown,230,2012-10-14 16:00:00
1:00 AM,69.8,60.8,73,29.92,-9999.0,Calm,Calm,-,N/A,,Unknown,0,2012-10-14 17:00:00
2:00 AM,66.2,60.8,83,29.92,-9999.0,Calm,Calm,-,N/A,,Unknown,0,2012-10-14 18:00:00
3:00 AM,66,61,79,29.91,,North,3.5,,,,,0,2012-10-14 19:00:00
3:00 AM,66.2,60.8,83,29.92,-9999.0,North,3.5,-,N/A,,Unknown,360,2012-10-14 19:00:00
4:00 AM,64.4,60.8,88,29.92,-9999.0,Calm,Calm,-,N/A,,Unknown,0,2012-10-14 20:00:00
5:00 AM,66.2,64.4,94,29.95,-9999.0,ESE,4.6,-,N/A,,Unknown,110,2012-10-14 21:00:00
6:00 AM,67,64,88,29.96,,Calm,Calm,,,,,,2012-10-14 22:00:00
6:00 AM,66.2,64.4,94,29.98,-9999.0,Calm,Calm,-,N/A,,Unknown,0,2012-10-14 22:00:00
7:00 AM,75.2,71.6,89,30.01,-9999.0,WNW,1.2,-,N/A,,Unknown,290,2012-10-14 23:00:00
8:00 AM,84.2,68.0,58,30.01,-9999.0,NW,3.5,-,N/A,,Unknown,310,2012-10-15 00:00:00
9:00 AM,88,63,33,29.99,,NW,4.6,,,,,320,2012-10-15 01:00:00
9:00 AM,87.8,62.6,43,30.01,-9999.0,NW,4.6,-,N/A,,Unknown,320,2012-10-15 01:00:00
10:00 AM,93.2,62.6,36,29.98,-9999.0,WNW,3.5,-,N/A,,Unknown,300,2012-10-15 02:00:00
11:00 AM,95.0,59.0,30,29.95,-9999.0,West,5.8,-,N/A,,Unknown,270,2012-10-15 03:00:00
12:00 PM,97,54,15,29.91,,West,6.9,,,,,270,2012-10-15 04:00:00
12:00 PM,96.8,55.4,25,29.92,-9999.0,West,6.9,-,N/A,,Unknown,270,2012-10-15 04:00:00
1:00 PM,100.4,53.6,21,29.89,-9999.0,WNW,9.2,-,N/A,,Unknown,290,2012-10-15 05:00:00
2:00 PM,100.4,48.2,17,29.86,-9999.0,NNW,6.9,-,N/A,,Unknown,340,2012-10-15 06:00:00
3:00 PM,101,43,7,29.85,,NNW,9.2,,,,,330,2012-10-15 07:00:00
3:00 PM,100.4,42.8,14,29.86,-9999.0,NNW,9.2,-,N/A,,Unknown,330,2012-10-15 07:00:00
4:00 PM,98.6,46.4,17,29.86,-9999.0,NW,10.4,-,N/A,,Unknown,320,2012-10-15 08:00:00
5:00 PM,95.0,50.0,22,29.86,-9999.0,North,9.2,-,N/A,,Unknown,350,2012-10-15 09:00:00
6:00 PM,88,64,35,29.87,,NNW,8.1,,,,,340,2012-10-15 10:00:00
6:00 PM,87.8,64.4,46,29.89,-9999.0,NNW,8.1,-,N/A,,Unknown,330,2012-10-15 10:00:00
7:00 PM,84.2,66.2,55,29.89,-9999.0,NNW,8.1,-,N/A,,Unknown,340,2012-10-15 11:00:00
8:00 PM,82.4,68.0,62,29.92,-9999.0,NNW,4.6,-,N/A,,Unknown,340,2012-10-15 12:00:00
9:00 PM,80,67,57,29.93,,NW,4.6,,,,,310,2012-10-15 13:00:00
9:00 PM,80.6,68.0,65,29.95,-9999.0,NW,4.6,-,N/A,,Unknown,310,2012-10-15 13:00:00
10:00 PM,75.2,62.6,65,29.95,-9999.0,NW,4.6,-,N/A,,Unknown,310,2012-10-15 14:00:00
11:00 PM,77.0,64.4,65,29.95,-9999.0,West,4.6,-,N/A,,Unknown,260,2012-10-15 15:00:00